sensor_id;sensor_type;location;lat;lon;timestamp;temperature;humidity
16408;DHT22;8313;49.894;8.084;2022-12-31T00:01:05;12.10;99.90
16408;DHT22;8313;49.894;8.084;2022-12-31T00:03:31;12.10;99.90
16408;DHT22;8313;49.894;8.084;2022-12-31T00:05:57;12.10;99.90
16408;DHT22;8313;49.894;8.084;2022-12-31T00:08:23;12.10;99.90
16408;DHT22;8313;49.894;8.084;2022-12-31T00:10:49;12.10;99.90
16408;DHT22;8313;49.894;8.084;2022-12-31T00:13:15;12.10;99.90
16408;DHT22;8313;49.894;8.084;2022-12-31T00:15:42;12.10;99.90
16408;DHT22;8313;49.894;8.084;2022-12-31T00:18:08;12.20;99.90
16408;DHT22;8313;49.894;8.084;2022-12-31T00:20:37;12.10;99.90
16408;DHT22;8313;49.894;8.084;2022-12-31T00:23:03;12.20;99.90
16408;DHT22;8313;49.894;8.084;2022-12-31T00:25:29;12.10;99.90
16408;DHT22;8313;49.894;8.084;2022-12-31T00:27:55;12.20;99.90
16408;DHT22;8313;49.894;8.084;2022-12-31T00:30:20;12.20;99.90
16408;DHT22;8313;49.894;8.084;2022-12-31T00:32:46;12.20;99.90
16408;DHT22;8313;49.894;8.084;2022-12-31T00:35:12;12.30;99.90
16408;DHT22;8313;49.894;8.084;2022-12-31T00:37:37;12.30;99.90
16408;DHT22;8313;49.894;8.084;2022-12-31T00:40:04;12.40;99.90
16408;DHT22;8313;49.894;8.084;2022-12-31T00:42:29;12.30;99.90
16408;DHT22;8313;49.894;8.084;2022-12-31T00:44:55;12.40;99.90
16408;DHT22;8313;49.894;8.084;2022-12-31T00:47:21;12.30;99.90
16408;DHT22;8313;49.894;8.084;2022-12-31T00:49:48;12.40;99.90
16408;DHT22;8313;49.894;8.084;2022-12-31T00:52:14;12.40;99.90
16408;DHT22;8313;49.894;8.084;2022-12-31T00:54:41;12.50;99.90
16408;DHT22;8313;49.894;8.084;2022-12-31T00:57:07;12.40;99.90
16408;DHT22;8313;49.894;8.084;2022-12-31T00:59:32;12.40;99.90
16408;DHT22;8313;49.894;8.084;2022-12-31T01:01:58;12.60;99.90
16408;DHT22;8313;49.894;8.084;2022-12-31T01:04:24;12.60;99.90
16408;DHT22;8313;49.894;8.084;2022-12-31T01:06:49;12.50;99.90
16408;DHT22;8313;49.894;8.084;2022-12-31T01:09:16;12.50;99.90
16408;DHT22;8313;49.894;8.084;2022-12-31T01:11:42;12.50;99.90
16408;DHT22;8313;49.894;8.084;2022-12-31T01:14:18;12.50;99.90
16408;DHT22;8313;49.894;8.084;2022-12-31T01:16:47;12.50;99.90
16408;DHT22;8313;49.894;8.084;2022-12-31T01:19:19;12.50;99.90
16408;DHT22;8313;49.894;8.084;2022-12-31T01:21:46;12.50;99.90
16408;DHT22;8313;49.894;8.084;2022-12-31T01:24:13;12.50;99.90
16408;DHT22;8313;49.894;8.084;2022-12-31T01:26:39;12.50;99.90
16408;DHT22;8313;49.894;8.084;2022-12-31T01:29:06;12.60;99.90
16408;DHT22;8313;49.894;8.084;2022-12-31T01:31:33;12.70;99.90
16408;DHT22;8313;49.894;8.084;2022-12-31T01:33:59;12.70;99.90
16408;DHT22;8313;49.894;8.084;2022-12-31T01:36:28;12.70;99.90
16408;DHT22;8313;49.894;8.084;2022-12-31T01:38:55;12.70;99.90
16408;DHT22;8313;49.894;8.084;2022-12-31T01:41:27;12.70;99.90
16408;DHT22;8313;49.894;8.084;2022-12-31T01:44:02;12.70;99.90
16408;DHT22;8313;49.894;8.084;2022-12-31T01:46:50;12.80;99.90
16408;DHT22;8313;49.894;8.084;2022-12-31T01:51:53;12.90;99.90
16408;DHT22;8313;49.894;8.084;2022-12-31T01:54:21;12.90;99.90
16408;DHT22;8313;49.894;8.084;2022-12-31T01:56:50;13.00;99.90
16408;DHT22;8313;49.894;8.084;2022-12-31T01:59:20;13.00;99.90
16408;DHT22;8313;49.894;8.084;2022-12-31T02:01:47;12.90;99.90
16408;DHT22;8313;49.894;8.084;2022-12-31T02:04:18;13.00;99.90
16408;DHT22;8313;49.894;8.084;2022-12-31T02:07:05;13.00;99.90
16408;DHT22;8313;49.894;8.084;2022-12-31T02:09:32;13.00;99.90
16408;DHT22;8313;49.894;8.084;2022-12-31T02:11:59;13.10;99.90
16408;DHT22;8313;49.894;8.084;2022-12-31T02:14:27;13.10;99.90
16408;DHT22;8313;49.894;8.084;2022-12-31T02:22:39;13.10;99.90
16408;DHT22;8313;49.894;8.084;2022-12-31T02:31:02;13.20;99.90
16408;DHT22;8313;49.894;8.084;2022-12-31T02:33:37;13.10;99.90
16408;DHT22;8313;49.894;8.084;2022-12-31T02:36:09;13.20;99.90
16408;DHT22;8313;49.894;8.084;2022-12-31T02:38:40;13.20;99.90
16408;DHT22;8313;49.894;8.084;2022-12-31T02:41:15;13.20;99.90
16408;DHT22;8313;49.894;8.084;2022-12-31T02:47:16;13.10;99.90
16408;DHT22;8313;49.894;8.084;2022-12-31T02:58:12;13.10;99.90
16408;DHT22;8313;49.894;8.084;2022-12-31T03:00:48;13.10;99.90
16408;DHT22;8313;49.894;8.084;2022-12-31T03:03:34;13.00;99.90
16408;DHT22;8313;49.894;8.084;2022-12-31T03:06:05;13.00;99.90
16408;DHT22;8313;49.894;8.084;2022-12-31T03:08:32;13.00;99.90
16408;DHT22;8313;49.894;8.084;2022-12-31T03:11:18;13.00;99.90
16408;DHT22;8313;49.894;8.084;2022-12-31T03:14:03;13.00;99.90
16408;DHT22;8313;49.894;8.084;2022-12-31T03:16:29;13.00;99.90
16408;DHT22;8313;49.894;8.084;2022-12-31T03:18:55;13.10;99.90
16408;DHT22;8313;49.894;8.084;2022-12-31T03:21:39;13.10;99.90
16408;DHT22;8313;49.894;8.084;2022-12-31T03:24:23;13.00;99.90
16408;DHT22;8313;49.894;8.084;2022-12-31T03:27:07;13.10;99.90
16408;DHT22;8313;49.894;8.084;2022-12-31T03:29:33;13.10;99.90
16408;DHT22;8313;49.894;8.084;2022-12-31T03:31:59;13.10;99.90
16408;DHT22;8313;49.894;8.084;2022-12-31T03:34:25;13.10;99.90
16408;DHT22;8313;49.894;8.084;2022-12-31T03:36:50;13.10;99.90
16408;DHT22;8313;49.894;8.084;2022-12-31T03:39:17;13.10;99.90
16408;DHT22;8313;49.894;8.084;2022-12-31T03:41:42;13.10;99.90
16408;DHT22;8313;49.894;8.084;2022-12-31T03:44:08;13.00;99.90
16408;DHT22;8313;49.894;8.084;2022-12-31T03:46:34;13.10;99.90
16408;DHT22;8313;49.894;8.084;2022-12-31T03:48:59;13.10;99.90
16408;DHT22;8313;49.894;8.084;2022-12-31T03:51:25;13.10;99.90
16408;DHT22;8313;49.894;8.084;2022-12-31T03:53:51;13.10;99.90
16408;DHT22;8313;49.894;8.084;2022-12-31T03:56:17;13.20;99.90
16408;DHT22;8313;49.894;8.084;2022-12-31T03:58:42;13.10;99.90
16408;DHT22;8313;49.894;8.084;2022-12-31T04:01:08;13.10;99.90
16408;DHT22;8313;49.894;8.084;2022-12-31T04:03:34;13.20;99.90
16408;DHT22;8313;49.894;8.084;2022-12-31T04:05:59;13.20;99.90
16408;DHT22;8313;49.894;8.084;2022-12-31T04:08:25;13.10;99.90
16408;DHT22;8313;49.894;8.084;2022-12-31T04:10:51;13.10;99.90
16408;DHT22;8313;49.894;8.084;2022-12-31T04:13:16;13.20;99.90
16408;DHT22;8313;49.894;8.084;2022-12-31T04:15:42;13.20;99.90
16408;DHT22;8313;49.894;8.084;2022-12-31T04:18:08;13.20;99.90
16408;DHT22;8313;49.894;8.084;2022-12-31T04:20:33;13.30;99.90
16408;DHT22;8313;49.894;8.084;2022-12-31T04:22:59;13.30;99.90
16408;DHT22;8313;49.894;8.084;2022-12-31T04:25:25;13.20;99.90
16408;DHT22;8313;49.894;8.084;2022-12-31T04:27:50;13.30;99.90
16408;DHT22;8313;49.894;8.084;2022-12-31T04:30:16;13.40;99.90
16408;DHT22;8313;49.894;8.084;2022-12-31T04:32:41;13.40;99.90
16408;DHT22;8313;49.894;8.084;2022-12-31T04:35:08;13.50;99.90
16408;DHT22;8313;49.894;8.084;2022-12-31T04:37:34;13.50;99.90
16408;DHT22;8313;49.894;8.084;2022-12-31T04:40:00;13.50;99.90
16408;DHT22;8313;49.894;8.084;2022-12-31T04:42:26;13.50;99.90
16408;DHT22;8313;49.894;8.084;2022-12-31T04:44:51;13.60;99.90
16408;DHT22;8313;49.894;8.084;2022-12-31T04:47:17;13.60;99.90
16408;DHT22;8313;49.894;8.084;2022-12-31T04:49:43;13.60;99.90
16408;DHT22;8313;49.894;8.084;2022-12-31T04:52:08;13.60;99.90
16408;DHT22;8313;49.894;8.084;2022-12-31T04:54:37;13.60;99.90
16408;DHT22;8313;49.894;8.084;2022-12-31T04:57:03;13.70;99.90
16408;DHT22;8313;49.894;8.084;2022-12-31T04:59:28;13.70;99.90
16408;DHT22;8313;49.894;8.084;2022-12-31T05:01:54;13.70;99.90
16408;DHT22;8313;49.894;8.084;2022-12-31T05:04:20;13.80;99.90
16408;DHT22;8313;49.894;8.084;2022-12-31T05:06:45;13.80;99.90
16408;DHT22;8313;49.894;8.084;2022-12-31T05:09:11;13.80;99.90
16408;DHT22;8313;49.894;8.084;2022-12-31T05:11:37;13.80;99.90
16408;DHT22;8313;49.894;8.084;2022-12-31T05:14:03;13.80;99.90
16408;DHT22;8313;49.894;8.084;2022-12-31T05:16:29;13.90;99.90
16408;DHT22;8313;49.894;8.084;2022-12-31T05:18:55;13.90;99.90
16408;DHT22;8313;49.894;8.084;2022-12-31T05:21:21;13.90;99.90
16408;DHT22;8313;49.894;8.084;2022-12-31T05:23:47;13.90;99.90
16408;DHT22;8313;49.894;8.084;2022-12-31T05:26:14;13.90;99.90
16408;DHT22;8313;49.894;8.084;2022-12-31T05:28:40;13.90;99.90
16408;DHT22;8313;49.894;8.084;2022-12-31T05:31:06;13.90;99.90
16408;DHT22;8313;49.894;8.084;2022-12-31T05:33:32;13.90;99.90
16408;DHT22;8313;49.894;8.084;2022-12-31T05:35:57;13.90;99.90
16408;DHT22;8313;49.894;8.084;2022-12-31T05:38:24;13.90;99.90
16408;DHT22;8313;49.894;8.084;2022-12-31T05:41:04;14.00;99.90
16408;DHT22;8313;49.894;8.084;2022-12-31T05:43:30;13.90;99.90
16408;DHT22;8313;49.894;8.084;2022-12-31T05:45:59;14.00;99.90
16408;DHT22;8313;49.894;8.084;2022-12-31T05:48:25;14.00;99.90
16408;DHT22;8313;49.894;8.084;2022-12-31T05:50:51;14.00;99.90
16408;DHT22;8313;49.894;8.084;2022-12-31T05:53:17;13.90;99.90
16408;DHT22;8313;49.894;8.084;2022-12-31T05:55:45;13.90;99.90
16408;DHT22;8313;49.894;8.084;2022-12-31T05:58:11;14.00;99.90
16408;DHT22;8313;49.894;8.084;2022-12-31T06:00:36;14.00;99.90
16408;DHT22;8313;49.894;8.084;2022-12-31T06:03:02;14.00;99.90
16408;DHT22;8313;49.894;8.084;2022-12-31T06:05:28;14.00;99.90
16408;DHT22;8313;49.894;8.084;2022-12-31T06:07:53;14.00;99.90
16408;DHT22;8313;49.894;8.084;2022-12-31T06:10:19;14.00;99.90
16408;DHT22;8313;49.894;8.084;2022-12-31T06:12:45;14.10;99.90
16408;DHT22;8313;49.894;8.084;2022-12-31T06:15:10;14.10;99.90
16408;DHT22;8313;49.894;8.084;2022-12-31T06:17:36;14.10;99.90
16408;DHT22;8313;49.894;8.084;2022-12-31T06:20:02;14.10;99.90
16408;DHT22;8313;49.894;8.084;2022-12-31T06:22:28;14.10;99.90
16408;DHT22;8313;49.894;8.084;2022-12-31T06:24:53;14.10;99.90
16408;DHT22;8313;49.894;8.084;2022-12-31T06:27:19;14.10;99.90
16408;DHT22;8313;49.894;8.084;2022-12-31T06:29:45;14.10;99.90
16408;DHT22;8313;49.894;8.084;2022-12-31T06:32:11;14.20;99.90
16408;DHT22;8313;49.894;8.084;2022-12-31T06:34:37;14.20;99.90
16408;DHT22;8313;49.894;8.084;2022-12-31T06:37:03;14.20;99.90
16408;DHT22;8313;49.894;8.084;2022-12-31T06:39:29;14.20;99.90
16408;DHT22;8313;49.894;8.084;2022-12-31T06:41:54;14.30;99.90
16408;DHT22;8313;49.894;8.084;2022-12-31T06:44:20;14.20;99.90
16408;DHT22;8313;49.894;8.084;2022-12-31T06:46:47;14.20;99.90
16408;DHT22;8313;49.894;8.084;2022-12-31T06:49:14;14.20;99.90
16408;DHT22;8313;49.894;8.084;2022-12-31T06:51:40;14.20;99.90
16408;DHT22;8313;49.894;8.084;2022-12-31T06:54:06;14.20;99.90
16408;DHT22;8313;49.894;8.084;2022-12-31T06:56:32;14.10;99.90
16408;DHT22;8313;49.894;8.084;2022-12-31T06:58:58;14.10;99.90
16408;DHT22;8313;49.894;8.084;2022-12-31T07:09:34;14.00;99.90
16408;DHT22;8313;49.894;8.084;2022-12-31T07:12:30;14.00;99.90
16408;DHT22;8313;49.894;8.084;2022-12-31T07:15:03;14.00;99.90
16408;DHT22;8313;49.894;8.084;2022-12-31T07:18:06;14.00;99.90
16408;DHT22;8313;49.894;8.084;2022-12-31T07:20:36;14.00;99.90
16408;DHT22;8313;49.894;8.084;2022-12-31T07:23:02;13.90;99.90
16408;DHT22;8313;49.894;8.084;2022-12-31T07:25:28;13.90;99.90
16408;DHT22;8313;49.894;8.084;2022-12-31T07:28:06;13.90;99.90
16408;DHT22;8313;49.894;8.084;2022-12-31T07:30:59;13.90;99.90
16408;DHT22;8313;49.894;8.084;2022-12-31T07:33:33;13.90;99.90
16408;DHT22;8313;49.894;8.084;2022-12-31T07:36:15;13.90;99.90
16408;DHT22;8313;49.894;8.084;2022-12-31T07:38:49;13.90;99.90
16408;DHT22;8313;49.894;8.084;2022-12-31T07:46:59;13.80;99.90
16408;DHT22;8313;49.894;8.084;2022-12-31T07:49:28;13.80;99.90
16408;DHT22;8313;49.894;8.084;2022-12-31T07:51:54;13.80;99.90
16408;DHT22;8313;49.894;8.084;2022-12-31T07:54:21;13.80;99.90
16408;DHT22;8313;49.894;8.084;2022-12-31T07:56:47;13.80;99.90
16408;DHT22;8313;49.894;8.084;2022-12-31T08:01:46;13.80;99.90
16408;DHT22;8313;49.894;8.084;2022-12-31T08:04:38;13.80;99.90
16408;DHT22;8313;49.894;8.084;2022-12-31T08:09:49;13.80;99.90
16408;DHT22;8313;49.894;8.084;2022-12-31T08:12:19;13.80;99.90
16408;DHT22;8313;49.894;8.084;2022-12-31T08:14:46;13.80;99.90
16408;DHT22;8313;49.894;8.084;2022-12-31T08:17:15;13.80;99.90
16408;DHT22;8313;49.894;8.084;2022-12-31T08:19:41;13.80;99.90
16408;DHT22;8313;49.894;8.084;2022-12-31T08:30:25;13.70;99.90
16408;DHT22;8313;49.894;8.084;2022-12-31T08:38:46;13.70;99.90
16408;DHT22;8313;49.894;8.084;2022-12-31T08:41:28;13.70;99.90
16408;DHT22;8313;49.894;8.084;2022-12-31T08:48:52;13.70;99.90
16408;DHT22;8313;49.894;8.084;2022-12-31T08:51:20;13.70;99.90
16408;DHT22;8313;49.894;8.084;2022-12-31T08:53:47;13.70;99.90
16408;DHT22;8313;49.894;8.084;2022-12-31T08:56:25;13.70;99.90
16408;DHT22;8313;49.894;8.084;2022-12-31T09:01:42;13.70;99.90
16408;DHT22;8313;49.894;8.084;2022-12-31T09:04:24;13.70;99.90
16408;DHT22;8313;49.894;8.084;2022-12-31T09:07:01;13.70;99.90
16408;DHT22;8313;49.894;8.084;2022-12-31T09:12:17;13.70;99.90
16408;DHT22;8313;49.894;8.084;2022-12-31T09:14:51;13.70;99.90
16408;DHT22;8313;49.894;8.084;2022-12-31T09:22:48;13.70;99.90
16408;DHT22;8313;49.894;8.084;2022-12-31T09:25:15;13.70;99.90
16408;DHT22;8313;49.894;8.084;2022-12-31T09:27:54;13.70;99.90
16408;DHT22;8313;49.894;8.084;2022-12-31T09:30:29;13.80;99.90
16408;DHT22;8313;49.894;8.084;2022-12-31T09:36:24;13.80;99.90
16408;DHT22;8313;49.894;8.084;2022-12-31T09:39:15;13.80;99.90
16408;DHT22;8313;49.894;8.084;2022-12-31T09:45:04;13.80;99.90
16408;DHT22;8313;49.894;8.084;2022-12-31T09:48:06;13.80;99.90
16408;DHT22;8313;49.894;8.084;2022-12-31T09:50:58;13.80;99.90
16408;DHT22;8313;49.894;8.084;2022-12-31T09:59:03;13.80;99.90
16408;DHT22;8313;49.894;8.084;2022-12-31T10:17:29;14.10;99.90
16408;DHT22;8313;49.894;8.084;2022-12-31T10:39:22;14.30;99.90
16408;DHT22;8313;49.894;8.084;2022-12-31T11:09:57;14.80;99.90
16408;DHT22;8313;49.894;8.084;2022-12-31T11:15:37;14.80;99.90
16408;DHT22;8313;49.894;8.084;2022-12-31T11:23:33;14.90;99.90
16408;DHT22;8313;49.894;8.084;2022-12-31T11:26:32;14.90;99.90
16408;DHT22;8313;49.894;8.084;2022-12-31T11:29:11;14.90;99.90
16408;DHT22;8313;49.894;8.084;2022-12-31T11:37:28;15.00;99.90
16408;DHT22;8313;49.894;8.084;2022-12-31T11:48:21;15.00;99.90
16408;DHT22;8313;49.894;8.084;2022-12-31T11:59:29;15.10;99.90
16408;DHT22;8313;49.894;8.084;2022-12-31T12:04:58;15.00;99.90
16408;DHT22;8313;49.894;8.084;2022-12-31T12:07:25;15.00;99.90
16408;DHT22;8313;49.894;8.084;2022-12-31T12:09:53;15.00;99.90
16408;DHT22;8313;49.894;8.084;2022-12-31T12:12:20;15.00;99.90
16408;DHT22;8313;49.894;8.084;2022-12-31T12:14:51;15.00;99.90
16408;DHT22;8313;49.894;8.084;2022-12-31T12:17:28;15.10;99.90
16408;DHT22;8313;49.894;8.084;2022-12-31T12:20:09;15.10;99.90
16408;DHT22;8313;49.894;8.084;2022-12-31T12:22:48;15.10;99.90
16408;DHT22;8313;49.894;8.084;2022-12-31T12:25:20;15.10;99.90
16408;DHT22;8313;49.894;8.084;2022-12-31T12:27:47;15.20;99.90
16408;DHT22;8313;49.894;8.084;2022-12-31T12:30:25;15.20;99.90
16408;DHT22;8313;49.894;8.084;2022-12-31T12:35:27;15.30;99.90
16408;DHT22;8313;49.894;8.084;2022-12-31T12:38:01;15.20;99.90
16408;DHT22;8313;49.894;8.084;2022-12-31T12:40:29;15.20;99.90
16408;DHT22;8313;49.894;8.084;2022-12-31T12:42:55;15.20;99.90
16408;DHT22;8313;49.894;8.084;2022-12-31T12:45:35;15.20;99.90
16408;DHT22;8313;49.894;8.084;2022-12-31T12:48:07;15.20;99.90
16408;DHT22;8313;49.894;8.084;2022-12-31T12:50:42;15.20;99.90
16408;DHT22;8313;49.894;8.084;2022-12-31T12:53:18;15.20;99.90
16408;DHT22;8313;49.894;8.084;2022-12-31T13:16:51;15.50;99.90
16408;DHT22;8313;49.894;8.084;2022-12-31T13:22:23;15.40;99.90
16408;DHT22;8313;49.894;8.084;2022-12-31T13:27:45;15.50;99.90
16408;DHT22;8313;49.894;8.084;2022-12-31T13:30:36;15.50;99.90
16408;DHT22;8313;49.894;8.084;2022-12-31T13:33:10;15.60;99.90
16408;DHT22;8313;49.894;8.084;2022-12-31T13:38:35;15.60;99.90
16408;DHT22;8313;49.894;8.084;2022-12-31T13:44:03;15.60;99.90
16408;DHT22;8313;49.894;8.084;2022-12-31T13:49:03;15.50;99.90
16408;DHT22;8313;49.894;8.084;2022-12-31T13:51:44;15.50;99.90
16408;DHT22;8313;49.894;8.084;2022-12-31T13:56:51;15.50;99.90
16408;DHT22;8313;49.894;8.084;2022-12-31T13:59:22;15.40;99.90
16408;DHT22;8313;49.894;8.084;2022-12-31T14:04:29;15.40;99.90
16408;DHT22;8313;49.894;8.084;2022-12-31T14:07:06;15.40;99.90
16408;DHT22;8313;49.894;8.084;2022-12-31T14:09:34;15.40;99.90
16408;DHT22;8313;49.894;8.084;2022-12-31T14:20:51;15.20;99.90
16408;DHT22;8313;49.894;8.084;2022-12-31T14:23:50;15.30;99.90
16408;DHT22;8313;49.894;8.084;2022-12-31T14:34:22;15.10;99.90
16408;DHT22;8313;49.894;8.084;2022-12-31T14:47:49;15.00;99.90
16408;DHT22;8313;49.894;8.084;2022-12-31T14:55:22;14.90;99.90
16408;DHT22;8313;49.894;8.084;2022-12-31T14:57:49;14.90;99.90
16408;DHT22;8313;49.894;8.084;2022-12-31T15:05:53;14.80;99.90
16408;DHT22;8313;49.894;8.084;2022-12-31T15:08:35;14.80;99.90
16408;DHT22;8313;49.894;8.084;2022-12-31T15:24:44;14.60;99.90
16408;DHT22;8313;49.894;8.084;2022-12-31T15:29:57;14.60;99.90
16408;DHT22;8313;49.894;8.084;2022-12-31T15:32:30;14.50;99.90
16408;DHT22;8313;49.894;8.084;2022-12-31T15:40:50;14.50;99.90
16408;DHT22;8313;49.894;8.084;2022-12-31T15:43:38;14.50;99.90
16408;DHT22;8313;49.894;8.084;2022-12-31T15:46:29;14.50;99.90
16408;DHT22;8313;49.894;8.084;2022-12-31T15:49:02;14.40;99.90
16408;DHT22;8313;49.894;8.084;2022-12-31T15:51:35;14.40;99.90
16408;DHT22;8313;49.894;8.084;2022-12-31T15:54:04;14.40;99.90
16408;DHT22;8313;49.894;8.084;2022-12-31T15:56:38;14.40;99.90
16408;DHT22;8313;49.894;8.084;2022-12-31T15:59:11;14.40;99.90
16408;DHT22;8313;49.894;8.084;2022-12-31T16:01:40;14.40;99.90
16408;DHT22;8313;49.894;8.084;2022-12-31T16:06:38;14.30;99.90
16408;DHT22;8313;49.894;8.084;2022-12-31T16:09:19;14.30;99.90
16408;DHT22;8313;49.894;8.084;2022-12-31T16:11:45;14.20;99.90
16408;DHT22;8313;49.894;8.084;2022-12-31T16:14:43;14.20;99.90
16408;DHT22;8313;49.894;8.084;2022-12-31T16:17:34;14.20;99.90
16408;DHT22;8313;49.894;8.084;2022-12-31T16:20:19;14.10;99.90
16408;DHT22;8313;49.894;8.084;2022-12-31T16:22:53;14.10;99.90
16408;DHT22;8313;49.894;8.084;2022-12-31T16:25:21;14.10;99.90
16408;DHT22;8313;49.894;8.084;2022-12-31T16:27:51;14.00;99.90
16408;DHT22;8313;49.894;8.084;2022-12-31T16:30:20;14.10;99.90
16408;DHT22;8313;49.894;8.084;2022-12-31T16:32:49;14.00;99.90
16408;DHT22;8313;49.894;8.084;2022-12-31T16:35:29;14.10;99.90
16408;DHT22;8313;49.894;8.084;2022-12-31T16:40:39;14.00;99.90
16408;DHT22;8313;49.894;8.084;2022-12-31T16:43:22;14.00;99.90
16408;DHT22;8313;49.894;8.084;2022-12-31T16:45:48;14.00;99.90
16408;DHT22;8313;49.894;8.084;2022-12-31T16:48:16;13.90;99.90
16408;DHT22;8313;49.894;8.084;2022-12-31T16:50:53;14.00;99.90
16408;DHT22;8313;49.894;8.084;2022-12-31T16:53:23;13.90;99.90
16408;DHT22;8313;49.894;8.084;2022-12-31T16:56:03;13.90;99.90
16408;DHT22;8313;49.894;8.084;2022-12-31T16:58:33;13.90;99.90
16408;DHT22;8313;49.894;8.084;2022-12-31T17:01:21;13.90;99.90
16408;DHT22;8313;49.894;8.084;2022-12-31T17:03:53;13.80;99.90
16408;DHT22;8313;49.894;8.084;2022-12-31T17:06:21;13.80;99.90
16408;DHT22;8313;49.894;8.084;2022-12-31T17:14:11;13.70;99.90
16408;DHT22;8313;49.894;8.084;2022-12-31T17:19:37;13.70;99.90
16408;DHT22;8313;49.894;8.084;2022-12-31T17:22:14;13.70;99.90
16408;DHT22;8313;49.894;8.084;2022-12-31T17:24:40;13.70;99.90
16408;DHT22;8313;49.894;8.084;2022-12-31T17:27:07;13.70;99.90
16408;DHT22;8313;49.894;8.084;2022-12-31T17:29:33;13.70;99.90
16408;DHT22;8313;49.894;8.084;2022-12-31T17:32:05;13.70;99.90
16408;DHT22;8313;49.894;8.084;2022-12-31T17:34:32;13.70;99.90
16408;DHT22;8313;49.894;8.084;2022-12-31T17:36:59;13.70;99.90
16408;DHT22;8313;49.894;8.084;2022-12-31T17:39:26;13.70;99.90
16408;DHT22;8313;49.894;8.084;2022-12-31T17:42:03;13.70;99.90
16408;DHT22;8313;49.894;8.084;2022-12-31T17:44:30;13.70;99.90
16408;DHT22;8313;49.894;8.084;2022-12-31T17:46:57;13.70;99.90
16408;DHT22;8313;49.894;8.084;2022-12-31T17:49:27;13.70;99.90
16408;DHT22;8313;49.894;8.084;2022-12-31T17:51:54;13.70;99.90
16408;DHT22;8313;49.894;8.084;2022-12-31T17:54:20;13.60;99.90
16408;DHT22;8313;49.894;8.084;2022-12-31T17:56:46;13.60;99.90
16408;DHT22;8313;49.894;8.084;2022-12-31T17:59:24;13.60;99.90
16408;DHT22;8313;49.894;8.084;2022-12-31T18:01:50;13.60;99.90
16408;DHT22;8313;49.894;8.084;2022-12-31T18:04:17;13.60;99.90
16408;DHT22;8313;49.894;8.084;2022-12-31T18:06:44;13.60;99.90
16408;DHT22;8313;49.894;8.084;2022-12-31T18:09:10;13.60;99.90
16408;DHT22;8313;49.894;8.084;2022-12-31T18:11:36;13.60;99.90
16408;DHT22;8313;49.894;8.084;2022-12-31T18:14:03;13.70;99.90
16408;DHT22;8313;49.894;8.084;2022-12-31T18:16:29;13.80;99.90
16408;DHT22;8313;49.894;8.084;2022-12-31T18:18:56;13.70;99.90
16408;DHT22;8313;49.894;8.084;2022-12-31T18:21:30;13.70;99.90
16408;DHT22;8313;49.894;8.084;2022-12-31T18:23:58;13.60;99.90
16408;DHT22;8313;49.894;8.084;2022-12-31T18:26:25;13.60;99.90
16408;DHT22;8313;49.894;8.084;2022-12-31T18:28:51;13.50;99.90
16408;DHT22;8313;49.894;8.084;2022-12-31T18:31:23;13.60;99.90
16408;DHT22;8313;49.894;8.084;2022-12-31T18:33:51;13.50;99.90
16408;DHT22;8313;49.894;8.084;2022-12-31T18:36:19;13.50;99.90
16408;DHT22;8313;49.894;8.084;2022-12-31T18:38:45;13.50;99.90
16408;DHT22;8313;49.894;8.084;2022-12-31T18:41:22;13.50;99.90
16408;DHT22;8313;49.894;8.084;2022-12-31T18:43:49;13.50;99.90
16408;DHT22;8313;49.894;8.084;2022-12-31T18:46:17;13.40;99.90
16408;DHT22;8313;49.894;8.084;2022-12-31T18:48:43;13.50;99.90
16408;DHT22;8313;49.894;8.084;2022-12-31T18:51:19;13.40;99.90
16408;DHT22;8313;49.894;8.084;2022-12-31T18:53:45;13.40;99.90
16408;DHT22;8313;49.894;8.084;2022-12-31T18:56:12;13.40;99.90
16408;DHT22;8313;49.894;8.084;2022-12-31T18:58:39;13.40;99.90
16408;DHT22;8313;49.894;8.084;2022-12-31T19:01:24;13.40;99.90
16408;DHT22;8313;49.894;8.084;2022-12-31T19:03:50;13.40;99.90
16408;DHT22;8313;49.894;8.084;2022-12-31T19:06:16;13.40;99.90
16408;DHT22;8313;49.894;8.084;2022-12-31T19:08:41;13.40;99.90
16408;DHT22;8313;49.894;8.084;2022-12-31T19:11:12;13.40;99.90
16408;DHT22;8313;49.894;8.084;2022-12-31T19:13:38;13.40;99.90
16408;DHT22;8313;49.894;8.084;2022-12-31T19:16:04;13.40;99.90
16408;DHT22;8313;49.894;8.084;2022-12-31T19:18:30;13.40;99.90
16408;DHT22;8313;49.894;8.084;2022-12-31T19:20:56;13.40;99.90
16408;DHT22;8313;49.894;8.084;2022-12-31T19:23:21;13.40;99.90
16408;DHT22;8313;49.894;8.084;2022-12-31T19:25:47;13.30;99.90
16408;DHT22;8313;49.894;8.084;2022-12-31T19:30:40;13.30;99.90
16408;DHT22;8313;49.894;8.084;2022-12-31T19:33:06;13.30;99.90
16408;DHT22;8313;49.894;8.084;2022-12-31T19:35:32;13.30;99.90
16408;DHT22;8313;49.894;8.084;2022-12-31T19:37:57;13.30;99.90
16408;DHT22;8313;49.894;8.084;2022-12-31T19:40:26;13.20;99.90
16408;DHT22;8313;49.894;8.084;2022-12-31T19:42:53;13.30;99.90
16408;DHT22;8313;49.894;8.084;2022-12-31T19:45:22;13.20;99.90
16408;DHT22;8313;49.894;8.084;2022-12-31T19:47:48;13.20;99.90
16408;DHT22;8313;49.894;8.084;2022-12-31T19:50:19;13.20;99.90
16408;DHT22;8313;49.894;8.084;2022-12-31T19:52:47;13.20;99.90
16408;DHT22;8313;49.894;8.084;2022-12-31T19:55:15;13.10;99.90
16408;DHT22;8313;49.894;8.084;2022-12-31T19:57:41;13.10;99.90
16408;DHT22;8313;49.894;8.084;2022-12-31T20:00:08;13.10;99.90
16408;DHT22;8313;49.894;8.084;2022-12-31T20:02:40;13.00;99.90
16408;DHT22;8313;49.894;8.084;2022-12-31T20:05:06;13.00;99.90
16408;DHT22;8313;49.894;8.084;2022-12-31T20:07:32;13.00;99.90
16408;DHT22;8313;49.894;8.084;2022-12-31T20:09:58;13.00;99.90
16408;DHT22;8313;49.894;8.084;2022-12-31T20:12:24;13.00;99.90
16408;DHT22;8313;49.894;8.084;2022-12-31T20:14:50;13.10;99.90
16408;DHT22;8313;49.894;8.084;2022-12-31T20:17:16;13.00;99.90
16408;DHT22;8313;49.894;8.084;2022-12-31T20:19:41;13.00;99.90
16408;DHT22;8313;49.894;8.084;2022-12-31T20:22:07;13.00;99.90
16408;DHT22;8313;49.894;8.084;2022-12-31T20:24:32;13.00;99.90
16408;DHT22;8313;49.894;8.084;2022-12-31T20:26:58;13.00;99.90
16408;DHT22;8313;49.894;8.084;2022-12-31T20:29:24;13.00;99.90
16408;DHT22;8313;49.894;8.084;2022-12-31T20:31:50;13.00;99.90
16408;DHT22;8313;49.894;8.084;2022-12-31T20:34:15;12.90;99.90
16408;DHT22;8313;49.894;8.084;2022-12-31T20:36:41;12.90;99.90
16408;DHT22;8313;49.894;8.084;2022-12-31T20:39:07;12.90;99.90
16408;DHT22;8313;49.894;8.084;2022-12-31T20:41:33;12.90;99.90
16408;DHT22;8313;49.894;8.084;2022-12-31T20:43:59;12.90;99.90
16408;DHT22;8313;49.894;8.084;2022-12-31T20:46:27;12.90;99.90
16408;DHT22;8313;49.894;8.084;2022-12-31T20:48:55;12.80;99.90
16408;DHT22;8313;49.894;8.084;2022-12-31T20:51:22;12.90;99.90
16408;DHT22;8313;49.894;8.084;2022-12-31T20:53:50;12.80;99.90
16408;DHT22;8313;49.894;8.084;2022-12-31T20:56:17;12.80;99.90
16408;DHT22;8313;49.894;8.084;2022-12-31T20:58:43;12.90;99.90
16408;DHT22;8313;49.894;8.084;2022-12-31T21:01:10;12.90;99.90
16408;DHT22;8313;49.894;8.084;2022-12-31T21:03:41;12.90;99.90
16408;DHT22;8313;49.894;8.084;2022-12-31T21:06:08;12.90;99.90